Ottoman Nobility — TCDA2 — position and weather

sailwx.info

Track history (hours):
 
Tides and Currents Weather Stations Pressure Air Temp Water Temp Dewpoint Dewpoint Depression Visibility Wind Speed Wind Dir Waves Ship Positions

Ottoman Nobility

Last reported at 2018-Apr-18 04:35 UTC. Time now 2018-Apr-20 08:55 UTC.
Position N 27°49' W 096°51'.

Length 269 m; draft 13.8 m.

Type: Tanker. MMSI: 271000773.

Date/timePositionNaut miles runAvg speedWind from/ knotsBaromVisibWave heightAir tempDewpointWater temp
2018-Apr-18 04:35N 27°49' W 096°51'  
2018-Apr-13 01:07N 27°18' W 095°53'310.0
2018-Apr-13 00:49N 27°17' W 095°50'1710.0
2018-Apr-12 23:10N 27°10' W 095°33'1410.3
2018-Apr-12 21:47N 27°03' W 095°19'310.3
2018-Apr-12 21:28N 27°02' W 095°15'  
2018-Apr-09 06:16N 25°34' W 079°32'4 9.9
2018-Apr-09 05:52N 25°38' W 079°31'3 9.0
2018-Apr-09 05:30N 25°41' W 079°31'4 8.4
2018-Apr-09 04:59N 25°45' W 079°31'4 8.3
2018-Apr-09 04:30N 25°49' W 079°30'4 8.1
2018-Apr-09 04:00N 25°53' W 079°30'4 8.2
2018-Apr-09 03:30N 25°57' W 079°28'5 8.6
2018-Apr-09 02:55N 26°01' W 079°25'3 8.6
2018-Apr-09 02:30N 26°04' W 079°23'4 8.9
2018-Apr-09 02:00N 26°07' W 079°19'5 9.1
2018-Apr-09 01:29N 26°10' W 079°14'4 9.0
2018-Apr-09 01:00N 26°12' W 079°10'  
Track history (hours):
 
Tides and Currents Weather Stations Pressure Air Temp Water Temp Dewpoint Dewpoint Depression Visibility Wind Speed Wind Dir Waves Ship Positions

Ottoman Nobility

Last reported at 2018-Apr-18 04:35 UTC. Time now 2018-Apr-20 08:55 UTC.
Position N 27°49' W 096°51'.

Length 269 m; draft 13.8 m.

Type: Tanker. MMSI: 271000773.

Date/timePositionNaut miles runAvg speedWind from/ knotsBaromVisibWave heightAir tempDewpointWater temp
2018-Apr-18 04:35N 27°49' W 096°51'  
2018-Apr-13 01:07N 27°18' W 095°53'310.0
2018-Apr-13 00:49N 27°17' W 095°50'1710.0
2018-Apr-12 23:10N 27°10' W 095°33'1410.3
2018-Apr-12 21:47N 27°03' W 095°19'310.3
2018-Apr-12 21:28N 27°02' W 095°15'  
2018-Apr-09 06:16N 25°34' W 079°32'4 9.9
2018-Apr-09 05:52N 25°38' W 079°31'3 9.0
2018-Apr-09 05:30N 25°41' W 079°31'4 8.4
2018-Apr-09 04:59N 25°45' W 079°31'4 8.3
2018-Apr-09 04:30N 25°49' W 079°30'4 8.1
2018-Apr-09 04:00N 25°53' W 079°30'4 8.2
2018-Apr-09 03:30N 25°57' W 079°28'5 8.6
2018-Apr-09 02:55N 26°01' W 079°25'3 8.6
2018-Apr-09 02:30N 26°04' W 079°23'4 8.9
2018-Apr-09 02:00N 26°07' W 079°19'5 9.1
2018-Apr-09 01:29N 26°10' W 079°14'4 9.0
2018-Apr-09 01:00N 26°12' W 079°10'  

Dump ship's entire track history